aviador You're here:

KBGM Decoded Metar

BINGHAMTON in NY, USA
Report Time2018-05-26 07:53:00
UTC Time2018-05-26 08:03:02
Flight Rules vfr VFR
Wind240° at 07 kt
W.Decomp.*RWY 28: 6.2 kt HW 3.3 kt LCW
RWY 34: 0.2 kt HW 7 kt LCW
W.Rank240° ranks 16
Current wind is above 240° avg. (6.9)
Visibility9999 m
Phenomena:N/A
Clouds:N/A
Expected CloudBase > 3,200 ft AGL from Temp-Dew spread
CeilingNone
Temp17°C (ISA +5)
Dew Point09°C (59% RH)
AAT14.2°C
QNH1010 hPa
Density Alt2,480 ft
Elevation1,608 ft
Report Wrong Elevation
Raw Report
KBGM 260753Z AUTO 24007KT 10SM CLR 17/09 A2984 RMK AO2 SLP093
T01720089=

Extra information for KBGM:More info

Metar Taf Metar & Taf Last 4 Metars F.Rules Stats Wind Profile Meteogram Temp Stats Airport Information Weather charts Add Link Nearby VenuesMetar ALERT Operation Metar Decoded Social comments

AIRNAV info for KBGM